createdAt,value
2018-05-17T00:01:52.309Z,100590.89
2018-05-17T00:04:21.444Z,100588.38
2018-05-17T00:06:50.616Z,100595.89
2018-05-17T00:09:19.822Z,100587.91
2018-05-17T00:11:49.848Z,100594.91
2018-05-17T00:14:19.895Z,100598.28
2018-05-17T00:16:49.043Z,100593.29
2018-05-17T00:19:20.596Z,100595.63
2018-05-17T00:21:50.484Z,100597.57
2018-05-17T00:24:20.385Z,100596.00
2018-05-17T00:26:49.558Z,100598.50
2018-05-17T00:29:19.429Z,100599.52
2018-05-17T00:31:48.538Z,100614.27
2018-05-17T00:34:18.429Z,100607.69
2018-05-17T00:36:49.048Z,100612.47
2018-05-17T00:39:18.186Z,100610.97
2018-05-17T00:41:48.064Z,100616.64
2018-05-17T00:44:17.174Z,100609.78
2018-05-17T00:46:46.369Z,100601.41
2018-05-17T00:49:16.196Z,100608.55
2018-05-17T00:51:46.194Z,100604.88
2018-05-17T00:54:15.323Z,100601.80
2018-05-17T00:56:45.196Z,100601.95
2018-05-17T00:59:14.366Z,100594.53
2018-05-17T01:01:43.450Z,100600.30
2018-05-17T01:04:12.554Z,100600.72
2018-05-17T01:06:41.707Z,100591.46
2018-05-17T01:09:10.808Z,100595.90
2018-05-17T01:11:40.712Z,100593.37
2018-05-17T01:14:09.823Z,100579.93
2018-05-17T01:16:39.868Z,100580.50
2018-05-17T01:19:09.024Z,100576.89
2018-05-17T01:21:38.130Z,100584.77
2018-05-17T01:24:08.014Z,100579.20
2018-05-17T01:26:37.205Z,100570.95
2018-05-17T01:29:06.310Z,100575.27
2018-05-17T01:31:35.429Z,100571.16
2018-05-17T01:34:05.300Z,100560.25
2018-05-17T01:36:34.583Z,100563.59
2018-05-17T01:39:03.695Z,100560.70
2018-05-17T01:41:32.817Z,100560.82
2018-05-17T01:44:01.940Z,100556.98
2018-05-17T01:46:31.795Z,100550.00
2018-05-17T01:49:00.972Z,100551.77
2018-05-17T01:51:30.067Z,100554.53
2018-05-17T01:53:59.213Z,100553.36
2018-05-17T01:56:28.310Z,100554.44
2018-05-17T01:58:57.428Z,100558.80
2018-05-17T02:01:27.296Z,100549.08
2018-05-17T02:03:56.802Z,100557.09
2018-05-17T02:06:25.911Z,100570.97
2018-05-17T02:08:55.786Z,100566.50
2018-05-17T02:11:24.930Z,100579.32
2018-05-17T02:13:54.079Z,100584.72
2018-05-17T02:16:23.186Z,100591.60
2018-05-17T02:18:52.322Z,100586.98
2018-05-17T02:21:21.444Z,100580.27
2018-05-17T02:23:51.329Z,100585.84
2018-05-17T02:26:20.439Z,100586.06
2018-05-17T02:28:49.526Z,100578.38
2018-05-17T02:31:19.398Z,100588.28
2018-05-17T02:33:48.519Z,100582.97
2018-05-17T02:36:17.697Z,100587.09
2018-05-17T02:38:46.795Z,100586.78
2018-05-17T02:41:15.890Z,100589.47
2018-05-17T02:43:45.015Z,100582.44
2018-05-17T02:46:14.131Z,100586.84
2018-05-17T02:48:44.945Z,100589.80
2018-05-17T02:51:14.089Z,100587.72
2018-05-17T02:53:43.170Z,100600.44
2018-05-17T02:56:12.297Z,100600.94
2018-05-17T02:58:42.194Z,100600.25
2018-05-17T03:01:12.065Z,100590.62
2018-05-17T03:03:41.193Z,100598.63
2018-05-17T03:06:10.290Z,100599.66
2018-05-17T03:11:46.656Z,100607.38
2018-05-17T03:14:16.527Z,100605.64
2018-05-17T03:16:45.660Z,100604.92
2018-05-17T03:19:16.478Z,100605.74
2018-05-17T03:21:45.614Z,100607.05
2018-05-17T03:24:15.489Z,100612.58
2018-05-17T03:26:45.391Z,100617.15
2018-05-17T03:29:14.501Z,100618.95
2018-05-17T03:31:43.626Z,100627.86
2018-05-17T03:34:13.508Z,100622.59
2018-05-17T03:36:42.619Z,100618.88
2018-05-17T03:39:13.082Z,100620.17
2018-05-17T03:41:42.215Z,100621.00
2018-05-17T03:44:11.330Z,100618.44
2018-05-17T03:46:41.223Z,100611.08
2018-05-17T03:49:10.313Z,100622.43
2018-05-17T03:51:39.480Z,100622.28
2018-05-17T03:54:08.634Z,100621.77
2018-05-17T03:56:38.006Z,100625.16
2018-05-17T03:59:08.096Z,100628.14
2018-05-17T04:01:55.868Z,100630.37
2018-05-17T04:04:42.620Z,100631.42
2018-05-17T04:07:11.744Z,100636.91
2018-05-17T04:09:42.498Z,100633.37
2018-05-17T04:12:11.624Z,100638.11
2018-05-17T04:14:40.956Z,100642.24
2018-05-17T04:17:10.124Z,100637.84
2018-05-17T04:19:40.005Z,100638.87
2018-05-17T04:22:09.109Z,100643.46
2018-05-17T04:24:38.256Z,100642.50
2018-05-17T04:27:08.825Z,100648.02
2018-05-17T04:29:38.070Z,100646.55
2018-05-17T04:32:08.207Z,100640.81
2018-05-17T04:34:39.108Z,100633.39
2018-05-17T04:37:08.230Z,100636.97
2018-05-17T04:39:38.142Z,100639.93
2018-05-17T04:42:08.013Z,100647.98
2018-05-17T04:44:38.165Z,100645.14
2018-05-17T04:47:07.332Z,100647.35
2018-05-17T04:49:36.451Z,100630.94
2018-05-17T04:52:05.533Z,100634.42
2018-05-17T04:54:35.432Z,100643.41
2018-05-17T04:57:04.549Z,100647.59
2018-05-17T04:59:34.439Z,100649.32
2018-05-17T05:02:03.607Z,100651.08
2018-05-17T05:04:32.733Z,100650.48
2018-05-17T05:07:02.792Z,100656.77
2018-05-17T05:09:31.930Z,100667.08
2018-05-17T05:12:01.013Z,100663.14
2018-05-17T05:14:30.137Z,100669.53
2018-05-17T05:17:00.195Z,100680.50
2018-05-17T05:19:30.065Z,100683.59
2018-05-17T05:21:59.180Z,100688.09
2018-05-17T05:24:29.071Z,100692.48
2018-05-17T05:26:58.188Z,100699.06
2018-05-17T05:29:27.305Z,100698.71
2018-05-17T05:31:56.424Z,100703.31
2018-05-17T05:34:25.538Z,100702.56
2018-05-17T05:36:55.721Z,100702.89
2018-05-17T05:39:24.842Z,100707.20
2018-05-17T05:41:53.967Z,100708.50
2018-05-17T05:44:23.093Z,100716.88
2018-05-17T05:46:52.194Z,100710.36
2018-05-17T05:49:21.368Z,100717.80
2018-05-17T05:51:51.341Z,100717.66
2018-05-17T05:54:21.247Z,100711.72
2018-05-17T05:56:51.988Z,100710.09
2018-05-17T05:59:21.243Z,100700.24
2018-05-17T06:01:51.538Z,100689.05
2018-05-17T06:04:21.479Z,100693.95
2018-05-17T06:06:54.004Z,100699.42
2018-05-17T06:09:24.725Z,100713.32
2018-05-17T06:11:54.628Z,100716.33
2018-05-17T06:14:23.744Z,100723.23
2018-05-17T06:16:52.888Z,100734.44
2018-05-17T06:19:22.000Z,100753.38
2018-05-17T06:21:51.169Z,100752.17
2018-05-17T06:24:20.292Z,100752.91
2018-05-17T06:26:51.377Z,100757.50
2018-05-17T06:29:20.494Z,100758.09
2018-05-17T06:31:50.558Z,100773.77
2018-05-17T06:34:19.697Z,100774.10
2018-05-17T06:36:48.838Z,100766.37
2018-05-17T06:39:17.940Z,100754.12
2018-05-17T06:41:47.095Z,100748.72
2018-05-17T06:44:16.993Z,100747.70
2018-05-17T06:46:46.111Z,100750.30
2018-05-17T06:49:15.264Z,100744.82
2018-05-17T06:51:46.292Z,100750.03
2018-05-17T06:54:15.341Z,100747.44
2018-05-17T06:56:44.465Z,100749.50
2018-05-17T06:59:13.587Z,100756.42
2018-05-17T07:01:42.681Z,100763.23
2018-05-17T07:04:12.561Z,100757.79
2018-05-17T07:06:41.696Z,100771.03
2018-05-17T07:09:11.574Z,100765.30
2018-05-17T07:11:40.713Z,100778.41
2018-05-17T07:14:09.804Z,100772.87
2018-05-17T07:16:38.981Z,100781.94
2018-05-17T07:19:08.110Z,100778.38
2018-05-17T07:21:39.239Z,100777.69
2018-05-17T07:24:09.156Z,100782.47
2018-05-17T07:26:39.605Z,100782.67
2018-05-17T07:29:08.704Z,100783.75
2018-05-17T07:31:38.832Z,100786.23
2018-05-17T07:34:07.952Z,100792.70
2018-05-17T07:36:37.058Z,100790.75
2018-05-17T07:39:07.161Z,100790.55
2018-05-17T07:41:36.264Z,100796.54
2018-05-17T07:44:05.424Z,100796.94
2018-05-17T07:46:34.546Z,100798.27
2018-05-17T07:49:03.676Z,100791.70
2018-05-17T07:51:32.812Z,100796.36
2018-05-17T07:54:02.002Z,100799.05
2018-05-17T07:56:31.116Z,100799.55
2018-05-17T07:59:00.249Z,100797.77
2018-05-17T08:01:29.341Z,100807.52
2018-05-17T08:03:58.482Z,100805.39
2018-05-17T08:06:27.633Z,100813.55
2018-05-17T08:08:58.429Z,100808.41
2018-05-17T08:11:27.584Z,100818.20
2018-05-17T08:13:56.712Z,100823.48
2018-05-17T08:16:25.865Z,100820.48
2018-05-17T08:18:54.994Z,100816.72
2018-05-17T08:21:24.877Z,100818.05
2018-05-17T08:23:54.002Z,100820.78
2018-05-17T08:26:23.942Z,100823.87
2018-05-17T08:28:53.107Z,100819.66
2018-05-17T08:31:22.174Z,100830.94
2018-05-17T08:33:51.317Z,100825.39
2018-05-17T08:36:20.526Z,100821.83
2018-05-17T08:38:50.514Z,100820.78
2018-05-17T08:41:20.400Z,100822.05
2018-05-17T08:43:50.065Z,100829.55
2018-05-17T08:46:19.192Z,100830.63
2018-05-17T08:48:48.280Z,100825.46
2018-05-17T08:51:17.394Z,100829.00
2018-05-17T08:53:46.501Z,100830.69
2018-05-17T08:56:15.696Z,100828.09
2018-05-17T08:58:45.644Z,100836.60
2018-05-17T09:01:15.546Z,100840.47
2018-05-17T09:03:45.413Z,100835.57
2018-05-17T09:06:14.597Z,100834.09
2018-05-17T09:08:44.439Z,100846.03
2018-05-17T09:11:13.584Z,100839.60
2018-05-17T09:13:42.692Z,100843.06
2018-05-17T09:16:11.829Z,100847.02
2018-05-17T09:18:40.967Z,100847.60
2018-05-17T09:21:10.916Z,100842.20
2018-05-17T09:23:40.045Z,100845.52
2018-05-17T09:26:09.170Z,100852.08
2018-05-17T09:28:39.224Z,100851.91
2018-05-17T09:31:08.343Z,100863.59
2018-05-17T09:33:37.485Z,100865.56
2018-05-17T09:36:07.372Z,100856.42
2018-05-17T09:38:36.484Z,100858.60
2018-05-17T09:41:06.362Z,100860.03
2018-05-17T09:43:35.490Z,100857.14
2018-05-17T09:46:06.319Z,100861.13
2018-05-17T09:48:36.241Z,100860.03
2018-05-17T09:51:06.116Z,100865.31
2018-05-17T09:53:35.227Z,100867.53
2018-05-17T09:56:04.401Z,100862.96
2018-05-17T09:58:33.532Z,100862.19
2018-05-17T10:01:03.658Z,100866.52
2018-05-17T10:03:33.555Z,100865.56
2018-05-17T10:06:03.696Z,100864.30
2018-05-17T10:08:32.805Z,100856.65
2018-05-17T10:11:02.904Z,100858.06
2018-05-17T10:13:32.794Z,100867.12
2018-05-17T10:16:01.908Z,100862.93
2018-05-17T10:18:31.790Z,100852.75
2018-05-17T10:21:00.944Z,100862.59
2018-05-17T10:23:30.059Z,100866.89
2018-05-17T10:25:59.212Z,100861.58
2018-05-17T10:28:28.316Z,100869.86
2018-05-17T10:30:58.207Z,100861.55
2018-05-17T10:33:27.334Z,100870.67
2018-05-17T10:35:57.201Z,100872.98
2018-05-17T10:38:26.361Z,100865.03
2018-05-17T10:40:56.478Z,100867.77
2018-05-17T10:43:25.583Z,100862.98
2018-05-17T10:45:54.712Z,100864.98
2018-05-17T10:48:24.590Z,100860.18
2018-05-17T10:50:53.745Z,100867.30
2018-05-17T10:53:22.856Z,100865.34
2018-05-17T10:55:51.974Z,100859.64
2018-05-17T10:58:21.862Z,100863.23
2018-05-17T11:00:50.992Z,100862.54
2018-05-17T11:03:20.896Z,100864.13
2018-05-17T11:05:52.868Z,100858.85
2018-05-17T11:08:23.016Z,100865.71
2018-05-17T11:10:52.140Z,100872.31
2018-05-17T11:13:21.277Z,100872.91
2018-05-17T11:15:51.185Z,100868.77
2018-05-17T11:18:21.080Z,100877.38
2018-05-17T11:20:50.187Z,100872.42
2018-05-17T11:23:20.082Z,100871.52
2018-05-17T11:25:49.455Z,100868.27
2018-05-17T11:28:18.577Z,100869.15
2018-05-17T11:30:47.728Z,100866.94
2018-05-17T11:33:16.826Z,100868.03
2018-05-17T11:35:45.973Z,100871.33
2018-05-17T11:38:15.079Z,100868.77
2018-05-17T11:40:44.169Z,100873.22
2018-05-17T11:43:13.302Z,100869.61
2018-05-17T11:45:42.411Z,100868.80
2018-05-17T11:48:12.457Z,100867.92
2018-05-17T11:50:41.586Z,100865.11
2018-05-17T11:53:10.710Z,100852.84
2018-05-17T11:55:39.840Z,100858.41
2018-05-17T11:58:09.756Z,100861.05
2018-05-17T12:00:41.733Z,100861.58
2018-05-17T12:03:10.954Z,100859.63
2018-05-17T12:05:40.840Z,100862.95
2018-05-17T12:08:10.756Z,100861.53
2018-05-17T12:10:40.681Z,100860.69
2018-05-17T12:13:09.802Z,100852.44
2018-05-17T12:15:39.449Z,100855.46
2018-05-17T12:18:08.583Z,100854.51
2018-05-17T12:20:39.717Z,100849.39
2018-05-17T12:23:10.422Z,100849.81
2018-05-17T12:25:39.539Z,100851.55
2018-05-17T12:28:09.464Z,100847.80
2018-05-17T12:30:39.413Z,100850.98
2018-05-17T12:33:08.543Z,100851.79
2018-05-17T12:35:39.657Z,100846.23
2018-05-17T12:38:08.801Z,100843.55
2018-05-17T12:40:37.945Z,100846.31
2018-05-17T12:43:07.088Z,100847.31
2018-05-17T12:45:36.947Z,100850.23
2018-05-17T12:48:06.083Z,100842.22
2018-05-17T12:50:36.008Z,100843.09
2018-05-17T12:53:05.917Z,100850.31
2018-05-17T12:55:35.801Z,100851.56
2018-05-17T12:58:05.973Z,100847.06
2018-05-17T13:00:35.127Z,100839.52
2018-05-17T13:03:04.260Z,100833.29
2018-05-17T13:05:33.484Z,100838.55
2018-05-17T13:08:03.542Z,100834.85
2018-05-17T13:10:32.671Z,100833.86
2018-05-17T13:13:01.834Z,100828.86
2018-05-17T13:15:30.965Z,100832.50
2018-05-17T13:18:00.076Z,100837.55
2018-05-17T13:20:29.281Z,100837.73
2018-05-17T13:22:58.389Z,100835.02
2018-05-17T13:25:27.581Z,100834.61
2018-05-17T13:27:56.763Z,100832.70
2018-05-17T13:30:25.838Z,100833.30
2018-05-17T13:32:55.726Z,100833.63
2018-05-17T13:35:24.867Z,100835.92
2018-05-17T13:37:54.021Z,100829.87
2018-05-17T13:40:23.156Z,100831.81
2018-05-17T13:42:52.265Z,100828.88
2018-05-17T13:45:22.467Z,100821.83
2018-05-17T13:47:51.653Z,100824.05
2018-05-17T13:50:20.722Z,100828.06
2018-05-17T13:52:49.869Z,100827.66
2018-05-17T13:55:19.002Z,100831.16
2018-05-17T13:57:48.163Z,100827.89
2018-05-17T14:00:17.276Z,100827.24
2018-05-17T14:02:46.391Z,100831.25
2018-05-17T14:05:16.554Z,100825.99
2018-05-17T14:07:45.685Z,100825.38
2018-05-17T14:10:15.711Z,100829.89
2018-05-17T14:12:45.618Z,100827.71
2018-05-17T14:15:14.776Z,100830.45
2018-05-17T14:17:43.956Z,100826.25
2018-05-17T14:20:13.100Z,100830.16
2018-05-17T14:22:43.005Z,100823.28
2018-05-17T14:25:12.885Z,100831.14
2018-05-17T14:27:42.010Z,100827.02
2018-05-17T14:30:11.135Z,100827.08
2018-05-17T14:32:40.746Z,100824.62
2018-05-17T14:35:10.562Z,100819.65
2018-05-17T14:37:39.938Z,100818.34
2018-05-17T14:40:09.076Z,100818.58
2018-05-17T14:42:39.167Z,100812.43
2018-05-17T14:45:08.271Z,100816.13
2018-05-17T14:47:37.419Z,100819.81
2018-05-17T14:50:07.289Z,100813.42
2018-05-17T14:52:36.445Z,100818.80
2018-05-17T14:55:05.567Z,100816.77
2018-05-17T14:57:34.905Z,100815.58
2018-05-17T15:00:04.012Z,100810.66
2018-05-17T15:02:33.904Z,100806.53
2018-05-17T15:05:03.133Z,100805.86
2018-05-17T15:07:33.023Z,100805.97
2018-05-17T15:10:02.187Z,100806.80
2018-05-17T15:12:31.363Z,100804.30
2018-05-17T15:15:00.576Z,100805.55
2018-05-17T15:17:29.712Z,100798.50
2018-05-17T15:19:58.828Z,100801.14
2018-05-17T15:22:28.731Z,100793.37
2018-05-17T15:24:57.844Z,100790.22
2018-05-17T15:27:27.840Z,100793.29
2018-05-17T15:29:57.028Z,100790.53
2018-05-17T15:32:26.805Z,100789.56
2018-05-17T15:34:55.905Z,100793.05
2018-05-17T15:37:25.069Z,100795.42
2018-05-17T15:39:54.942Z,100798.59
2018-05-17T15:42:24.082Z,100795.70
2018-05-17T15:44:53.961Z,100799.89
2018-05-17T15:47:23.121Z,100799.02
2018-05-17T15:49:52.248Z,100800.23
2018-05-17T15:52:22.301Z,100799.21
2018-05-17T15:54:52.166Z,100800.56
2018-05-17T15:57:21.312Z,100799.78
2018-05-17T15:59:51.198Z,100799.14
2018-05-17T16:02:20.385Z,100803.59
2018-05-17T16:04:49.549Z,100809.53
2018-05-17T16:07:18.678Z,100801.52
2018-05-17T16:09:47.846Z,100800.72
2018-05-17T16:12:16.950Z,100805.38
2018-05-17T16:14:46.215Z,100801.25
2018-05-17T16:17:15.218Z,100801.55
2018-05-17T16:19:44.344Z,100801.12
2018-05-17T16:22:13.460Z,100801.58
2018-05-17T16:24:42.593Z,100805.69
2018-05-17T16:27:12.811Z,100804.44
2018-05-17T16:29:41.918Z,100806.84
2018-05-17T16:32:12.018Z,100801.88
2018-05-17T16:34:41.927Z,100794.56
2018-05-17T16:37:11.067Z,100796.42
2018-05-17T16:39:40.596Z,100793.89
2018-05-17T16:42:09.717Z,100805.69
2018-05-17T16:44:38.837Z,100800.49
2018-05-17T16:47:09.779Z,100799.18
2018-05-17T16:49:40.913Z,100796.90
2018-05-17T16:52:10.812Z,100807.89
2018-05-17T16:54:40.607Z,100805.19
2018-05-17T16:57:10.484Z,100802.22
2018-05-17T16:59:40.733Z,100803.15
2018-05-17T17:02:10.723Z,100806.83
2018-05-17T17:04:42.513Z,100813.31
2018-05-17T17:07:12.363Z,100808.20
2018-05-17T17:09:42.322Z,100808.73
2018-05-17T17:12:11.443Z,100808.53
2018-05-17T17:14:41.670Z,100800.25
2018-05-17T17:17:11.541Z,100799.17
2018-05-17T17:19:41.631Z,100802.78
2018-05-17T17:22:11.754Z,100798.27
2018-05-17T17:24:40.887Z,100804.91
2018-05-17T17:27:10.189Z,100807.58
2018-05-17T17:29:41.587Z,100804.11
2018-05-17T17:32:10.714Z,100812.75
2018-05-17T17:34:43.229Z,100805.39
2018-05-17T17:37:14.027Z,100808.47
2018-05-17T17:39:43.965Z,100802.19
2018-05-17T17:42:14.307Z,100808.94
2018-05-17T17:44:43.464Z,100812.94
2018-05-17T17:47:13.360Z,100818.55
2018-05-17T17:49:42.505Z,100817.88
2018-05-17T17:52:11.626Z,100822.17
2018-05-17T17:54:40.936Z,100822.16
2018-05-17T17:57:10.073Z,100815.41
2018-05-17T17:59:40.089Z,100817.67
2018-05-17T18:02:09.963Z,100813.84
2018-05-17T18:04:39.200Z,100816.44
2018-05-17T18:07:09.116Z,100820.53
2018-05-17T18:09:40.990Z,100821.78
2018-05-17T18:12:10.105Z,100825.09
2018-05-17T18:14:41.241Z,100827.19
2018-05-17T18:17:11.624Z,100827.33
2018-05-17T18:19:41.614Z,100826.66
2018-05-17T18:22:11.498Z,100833.55
2018-05-17T18:24:41.125Z,100829.18
2018-05-17T18:27:10.355Z,100830.82
2018-05-17T18:29:39.504Z,100831.89
2018-05-17T18:32:08.601Z,100831.34
2018-05-17T18:34:37.752Z,100832.81
2018-05-17T18:37:07.640Z,100835.34
2018-05-17T18:39:37.466Z,100839.05
2018-05-17T18:42:06.591Z,100844.91
2018-05-17T18:44:36.497Z,100839.75
2018-05-17T18:47:06.422Z,100841.88
2018-05-17T18:49:36.286Z,100848.93
2018-05-17T18:52:07.234Z,100848.51
2018-05-17T18:54:36.932Z,100848.75
2018-05-17T18:57:06.809Z,100849.39
2018-05-17T18:59:37.434Z,100854.36
2018-05-17T19:02:06.610Z,100851.51
2018-05-17T19:04:35.762Z,100861.27
2018-05-17T19:07:04.916Z,100862.27
2018-05-17T19:09:34.837Z,100866.70
2018-05-17T19:12:04.751Z,100868.57
2018-05-17T19:14:34.863Z,100873.08
2018-05-17T19:17:04.814Z,100878.28
2018-05-17T19:19:34.744Z,100876.92
2018-05-17T19:22:04.262Z,100876.12
2018-05-17T19:24:33.438Z,100872.61
2018-05-17T19:27:02.584Z,100879.06
2018-05-17T19:29:32.709Z,100886.86
2018-05-17T19:32:02.681Z,100879.47
2018-05-17T19:34:32.176Z,100890.27
2018-05-17T19:37:01.428Z,100896.41
2018-05-17T19:39:31.424Z,100902.29
2018-05-17T19:42:00.538Z,100911.08
2018-05-17T19:44:29.667Z,100910.19
2018-05-17T19:46:59.767Z,100919.66
2018-05-17T19:49:30.933Z,100913.34
2018-05-17T19:52:00.072Z,100922.02
2018-05-17T19:54:31.087Z,100922.69
2018-05-17T19:57:00.210Z,100924.84
2018-05-17T19:59:29.429Z,100919.51
2018-05-17T20:01:58.505Z,100930.77
2018-05-17T20:04:29.598Z,100928.63
2018-05-17T20:06:58.757Z,100937.00
2018-05-17T20:09:28.671Z,100932.23
2018-05-17T20:11:57.785Z,100939.63
2018-05-17T20:14:26.922Z,100931.95
2018-05-17T20:16:56.079Z,100940.17
2018-05-17T20:19:26.794Z,100943.59
2018-05-17T20:21:56.741Z,100934.89
2018-05-17T20:24:25.887Z,100939.68
2018-05-17T20:26:54.993Z,100941.15
2018-05-17T20:29:24.132Z,100943.61
2018-05-17T20:31:53.409Z,100939.77
2018-05-17T20:34:23.337Z,100944.02
2018-05-17T20:36:52.489Z,100944.91
2018-05-17T20:39:21.628Z,100937.14
2018-05-17T20:41:52.544Z,100934.70
2018-05-17T20:44:23.124Z,100944.70
2018-05-17T20:46:53.196Z,100941.07
2018-05-17T20:49:22.532Z,100944.50
2018-05-17T20:51:51.644Z,100941.61
2018-05-17T20:54:20.783Z,100951.05
2018-05-17T20:56:49.917Z,100948.72
2018-05-17T20:59:19.829Z,100956.23
2018-05-17T21:01:50.989Z,100956.64
2018-05-17T21:04:20.121Z,100952.88
2018-05-17T21:06:49.260Z,100950.22
2018-05-17T21:09:18.372Z,100951.87
2018-05-17T21:11:47.518Z,100945.97
2018-05-17T21:14:16.630Z,100950.22
2018-05-17T21:16:46.646Z,100949.59
2018-05-17T21:19:15.792Z,100948.19
2018-05-17T21:21:44.921Z,100953.84
2018-05-17T21:24:14.060Z,100955.98
2018-05-17T21:26:44.109Z,100954.68
2018-05-17T21:29:13.282Z,100957.21
2018-05-17T21:31:43.522Z,100961.23
2018-05-17T21:34:12.660Z,100962.63
2018-05-17T21:36:42.023Z,100960.58
2018-05-17T21:39:11.160Z,100965.83
2018-05-17T21:41:42.294Z,100966.30
2018-05-17T21:44:11.423Z,100964.52
2018-05-17T21:46:40.559Z,100959.85
2018-05-17T21:49:10.582Z,100952.67
2018-05-17T21:51:39.930Z,100953.30
2018-05-17T21:54:09.821Z,100953.66
2018-05-17T21:56:38.939Z,100955.02
2018-05-17T21:59:09.662Z,100957.61
2018-05-17T22:01:39.662Z,100962.98
2018-05-17T22:04:08.750Z,100961.20
2018-05-17T22:06:37.875Z,100958.36
2018-05-17T22:09:08.673Z,100963.35
2018-05-17T22:11:37.809Z,100963.57
2018-05-17T22:14:07.672Z,100968.42
2018-05-17T22:16:37.706Z,100955.41
2018-05-17T22:19:10.160Z,100962.03
2018-05-17T22:21:39.409Z,100964.84
2018-05-17T22:24:08.548Z,100972.58
2018-05-17T22:26:38.020Z,100973.73
2018-05-17T22:29:07.893Z,100976.76
2018-05-17T22:31:37.002Z,100976.75
2018-05-17T22:34:06.139Z,100970.89
2018-05-17T22:36:35.273Z,100971.00
2018-05-17T22:39:04.379Z,100970.92
2018-05-17T22:41:34.244Z,100975.53
2018-05-17T22:44:04.367Z,100974.59
2018-05-17T22:46:33.482Z,100973.78
2018-05-17T22:49:03.544Z,100972.14
2018-05-17T22:51:32.655Z,100972.80
2018-05-17T22:54:02.540Z,100978.70
2018-05-17T22:56:50.425Z,100969.70
2018-05-17T22:59:19.554Z,100972.31
2018-05-17T23:01:48.651Z,100977.66
2018-05-17T23:04:18.782Z,100972.52
2018-05-17T23:06:47.893Z,100969.20
2018-05-17T23:09:17.033Z,100962.29
2018-05-17T23:11:46.129Z,100968.38
2018-05-17T23:14:16.190Z,100972.98
2018-05-17T23:16:46.831Z,100972.48
2018-05-17T23:19:15.934Z,100979.70
2018-05-17T23:21:46.549Z,100979.28
2018-05-17T23:24:17.174Z,100980.88
2018-05-17T23:26:46.285Z,100978.50
2018-05-17T23:29:15.408Z,100979.57
2018-05-17T23:31:49.078Z,100968.12
2018-05-17T23:34:18.198Z,100974.12
2018-05-17T23:36:47.335Z,100965.45
2018-05-17T23:39:16.439Z,100967.05
2018-05-17T23:41:46.282Z,100971.52
2018-05-17T23:44:15.400Z,100968.09
2018-05-17T23:46:45.268Z,100971.05
2018-05-17T23:49:14.385Z,100971.75
2018-05-17T23:51:43.657Z,100969.45
2018-05-17T23:54:12.765Z,100972.58
2018-05-17T23:56:42.866Z,100972.28
2018-05-17T23:59:12.001Z,100973.06
